createdAt,value
2017-11-23T00:00:32.645Z,994.80
2017-11-23T00:01:32.568Z,994.78
2017-11-23T00:02:32.552Z,994.77
2017-11-23T00:03:32.538Z,994.79
2017-11-23T00:04:32.541Z,994.75
2017-11-23T00:05:32.569Z,994.77
2017-11-23T00:06:32.592Z,994.78
2017-11-23T00:07:32.553Z,994.77
2017-11-23T00:08:32.647Z,994.74
2017-11-23T00:09:32.665Z,994.71
2017-11-23T00:10:32.550Z,994.67
2017-11-23T00:11:32.547Z,994.69
2017-11-23T00:12:32.665Z,994.65
2017-11-23T00:13:32.623Z,994.58
2017-11-23T00:14:32.555Z,994.55
2017-11-23T00:15:32.547Z,994.59
2017-11-23T00:16:32.624Z,994.54
2017-11-23T00:17:32.693Z,994.53
2017-11-23T00:18:32.628Z,994.48
2017-11-23T00:19:32.695Z,994.51
2017-11-23T00:20:32.692Z,994.49
2017-11-23T00:21:32.695Z,994.51
2017-11-23T00:22:32.645Z,994.49
2017-11-23T00:23:32.695Z,994.46
2017-11-23T00:24:32.718Z,994.45
2017-11-23T00:25:32.696Z,994.47
2017-11-23T00:26:32.629Z,994.43
2017-11-23T00:27:32.632Z,994.41
2017-11-23T00:28:32.699Z,994.48
2017-11-23T00:29:32.698Z,994.47
2017-11-23T00:30:32.637Z,994.44
2017-11-23T00:31:32.700Z,994.44
2017-11-23T00:32:32.642Z,994.41
2017-11-23T00:33:32.637Z,994.40
2017-11-23T00:34:32.642Z,994.32
2017-11-23T00:35:32.702Z,994.36
2017-11-23T00:36:32.637Z,994.29
2017-11-23T00:37:32.705Z,994.27
2017-11-23T00:38:32.640Z,994.31
2017-11-23T00:39:32.703Z,994.27
2017-11-23T00:40:32.638Z,994.28
2017-11-23T00:41:32.705Z,994.29
2017-11-23T00:42:32.641Z,994.28
2017-11-23T00:43:32.706Z,994.28
2017-11-23T00:44:32.639Z,994.28
2017-11-23T00:45:32.708Z,994.25
2017-11-23T00:46:32.709Z,994.23
2017-11-23T00:47:32.641Z,994.28
2017-11-23T00:48:32.599Z,994.30
2017-11-23T00:49:32.640Z,994.26
2017-11-23T00:50:32.714Z,994.23
2017-11-23T00:51:32.710Z,994.18
2017-11-23T00:52:32.658Z,994.14
2017-11-23T00:53:32.723Z,994.10
2017-11-23T00:54:32.648Z,994.08
2017-11-23T00:55:32.715Z,994.03
2017-11-23T00:56:32.688Z,994.06
2017-11-23T00:57:32.717Z,994.05
2017-11-23T00:58:32.651Z,994.10
2017-11-23T00:59:32.727Z,994.08
2017-11-23T01:00:32.655Z,994.12
2017-11-23T01:01:32.717Z,994.12
2017-11-23T01:02:32.657Z,994.09
2017-11-23T01:03:32.718Z,994.09
2017-11-23T01:04:32.654Z,994.13
2017-11-23T01:05:32.723Z,994.17
2017-11-23T01:06:32.705Z,994.17
2017-11-23T01:07:32.651Z,994.19
2017-11-23T01:08:32.621Z,994.20
2017-11-23T01:09:32.712Z,994.17
2017-11-23T01:10:32.708Z,994.17
2017-11-23T01:11:32.670Z,994.16
2017-11-23T01:12:32.623Z,994.10
2017-11-23T01:13:32.610Z,994.14
2017-11-23T01:14:32.613Z,994.08
2017-11-23T01:15:32.637Z,994.08
2017-11-23T01:16:32.660Z,994.10
2017-11-23T01:17:32.729Z,994.10
2017-11-23T01:18:32.659Z,994.08
2017-11-23T01:19:32.728Z,994.12
2017-11-23T01:20:32.707Z,994.09
2017-11-23T01:21:32.663Z,994.13
2017-11-23T01:22:32.737Z,994.14
2017-11-23T01:23:32.664Z,994.16
2017-11-23T01:24:32.731Z,994.19
2017-11-23T01:25:32.668Z,994.20
2017-11-23T01:26:32.665Z,994.20
2017-11-23T01:27:32.720Z,994.23
2017-11-23T01:28:32.620Z,994.17
2017-11-23T01:29:32.660Z,994.24
2017-11-23T01:30:32.664Z,994.23
2017-11-23T01:31:32.659Z,994.19
2017-11-23T01:32:32.645Z,994.20
2017-11-23T01:33:32.705Z,994.17
2017-11-23T01:34:32.645Z,994.13
2017-11-23T01:35:32.724Z,994.10
2017-11-23T01:36:32.695Z,994.14
2017-11-23T01:37:32.741Z,994.11
2017-11-23T01:38:32.677Z,994.19
2017-11-23T01:39:32.739Z,994.15
2017-11-23T01:40:32.674Z,994.16
2017-11-23T01:41:32.744Z,994.16
2017-11-23T01:42:32.678Z,994.18
2017-11-23T01:43:32.741Z,994.14
2017-11-23T01:44:32.744Z,994.12
2017-11-23T01:45:32.743Z,994.12
2017-11-23T01:46:32.743Z,994.15
2017-11-23T01:47:32.680Z,994.14
2017-11-23T01:48:32.744Z,994.21
2017-11-23T01:49:32.677Z,994.16
2017-11-23T01:50:32.747Z,994.14
2017-11-23T01:51:32.676Z,994.12
2017-11-23T01:52:32.749Z,994.14
2017-11-23T01:53:32.751Z,994.15
2017-11-23T01:54:32.749Z,994.15
2017-11-23T01:55:32.686Z,994.12
2017-11-23T01:56:32.755Z,994.14
2017-11-23T01:57:32.789Z,994.17
2017-11-23T01:58:32.681Z,994.16
2017-11-23T01:59:32.753Z,994.20
2017-11-23T02:00:32.691Z,994.24
2017-11-23T02:01:32.755Z,994.23
2017-11-23T02:02:32.692Z,994.24
2017-11-23T02:03:32.755Z,994.16
2017-11-23T02:04:32.757Z,994.28
2017-11-23T02:05:32.762Z,994.32
2017-11-23T02:06:32.740Z,994.35
2017-11-23T02:07:32.744Z,994.30
2017-11-23T02:08:32.712Z,994.28
2017-11-23T02:09:32.688Z,994.29
2017-11-23T02:10:32.663Z,994.27
2017-11-23T02:11:32.651Z,994.23
2017-11-23T02:12:32.750Z,994.14
2017-11-23T02:13:32.663Z,994.20
2017-11-23T02:14:32.628Z,994.12
2017-11-23T02:15:32.629Z,994.12
2017-11-23T02:16:32.750Z,994.17
2017-11-23T02:17:32.713Z,994.19
2017-11-23T02:18:32.749Z,994.22
2017-11-23T02:19:32.667Z,994.22
2017-11-23T02:20:32.638Z,994.20
2017-11-23T02:21:32.637Z,994.17
2017-11-23T02:22:32.737Z,994.21
2017-11-23T02:23:32.756Z,994.19
2017-11-23T02:24:32.675Z,994.24
2017-11-23T02:25:32.655Z,994.23
2017-11-23T02:26:32.778Z,994.24
2017-11-23T02:27:32.757Z,994.14
2017-11-23T02:28:32.737Z,994.10
2017-11-23T02:29:32.679Z,994.05
2017-11-23T02:30:32.637Z,994.07
2017-11-23T02:31:32.727Z,994.08
2017-11-23T02:32:32.741Z,994.14
2017-11-23T02:33:32.680Z,994.13
2017-11-23T02:34:32.760Z,994.12
2017-11-23T02:35:32.758Z,994.11
2017-11-23T02:36:32.776Z,994.07
2017-11-23T02:37:32.706Z,994.04
2017-11-23T02:38:32.779Z,994.11
2017-11-23T02:39:32.780Z,994.12
2017-11-23T02:40:32.749Z,994.11
2017-11-23T02:41:32.800Z,994.13
2017-11-23T02:42:32.708Z,994.13
2017-11-23T02:43:32.780Z,994.15
2017-11-23T02:44:32.721Z,994.11
2017-11-23T02:45:32.781Z,994.10
2017-11-23T02:46:32.627Z,994.00
2017-11-23T02:47:32.685Z,993.98
2017-11-23T02:48:32.731Z,993.91
2017-11-23T02:49:32.683Z,993.84
2017-11-23T02:50:32.631Z,993.91
2017-11-23T02:51:32.733Z,993.88
2017-11-23T02:52:32.737Z,993.87
2017-11-23T02:53:32.709Z,993.86
2017-11-23T02:54:32.683Z,993.91
2017-11-23T02:55:32.640Z,993.90
2017-11-23T02:56:32.789Z,993.92
2017-11-23T02:57:32.787Z,993.90
2017-11-23T02:58:32.789Z,993.90
2017-11-23T02:59:32.719Z,993.87
2017-11-23T03:00:32.791Z,993.83
2017-11-23T03:01:32.725Z,993.88
2017-11-23T03:02:32.793Z,993.80
2017-11-23T03:03:32.727Z,993.78
2017-11-23T03:04:32.794Z,993.75
2017-11-23T03:05:32.764Z,993.81
2017-11-23T03:06:32.726Z,993.81
2017-11-23T03:07:32.729Z,993.79
2017-11-23T03:08:32.798Z,993.80
2017-11-23T03:09:32.786Z,993.74
2017-11-23T03:10:32.742Z,993.76
2017-11-23T03:11:32.785Z,993.75
2017-11-23T03:12:32.682Z,993.74
2017-11-23T03:13:32.748Z,993.69
2017-11-23T03:14:32.683Z,993.67
2017-11-23T03:15:32.738Z,993.66
2017-11-23T03:16:32.823Z,993.64
2017-11-23T03:17:32.733Z,993.63
2017-11-23T03:18:32.737Z,993.67
2017-11-23T03:19:32.805Z,993.63
2017-11-23T03:20:32.742Z,993.61
2017-11-23T03:21:32.803Z,993.56
2017-11-23T03:22:32.736Z,993.52
2017-11-23T03:23:32.804Z,993.51
2017-11-23T03:24:32.744Z,993.52
2017-11-23T03:25:32.806Z,993.50
2017-11-23T03:26:32.804Z,993.48
2017-11-23T03:27:32.732Z,993.54
2017-11-23T03:28:32.737Z,993.49
2017-11-23T03:29:32.805Z,993.53
2017-11-23T03:30:32.746Z,993.52
2017-11-23T03:31:32.807Z,993.55
2017-11-23T03:32:32.739Z,993.55
2017-11-23T03:33:32.809Z,993.56
2017-11-23T03:34:32.753Z,993.56
2017-11-23T03:35:32.810Z,993.59
2017-11-23T03:36:32.740Z,993.56
2017-11-23T03:37:32.717Z,993.54
2017-11-23T03:38:32.739Z,993.56
2017-11-23T03:39:32.736Z,993.53
2017-11-23T03:40:32.762Z,993.52
2017-11-23T03:41:32.722Z,993.51
2017-11-23T03:42:32.764Z,993.49
2017-11-23T03:43:32.705Z,993.50
2017-11-23T03:44:32.677Z,993.45
2017-11-23T03:45:32.744Z,993.52
2017-11-23T03:46:32.678Z,993.51
2017-11-23T03:47:32.817Z,993.51
2017-11-23T03:48:32.825Z,993.55
2017-11-23T03:49:32.755Z,993.49
2017-11-23T03:50:32.860Z,993.57
2017-11-23T03:51:32.823Z,993.56
2017-11-23T03:52:32.753Z,993.51
2017-11-23T03:53:32.821Z,993.55
2017-11-23T03:54:32.778Z,993.53
2017-11-23T03:55:32.821Z,993.54
2017-11-23T03:56:32.824Z,993.50
2017-11-23T03:57:32.691Z,993.44
2017-11-23T03:58:32.725Z,993.43
2017-11-23T03:59:32.823Z,993.39
2017-11-23T04:00:32.813Z,993.38
2017-11-23T04:01:32.709Z,993.31
2017-11-23T04:02:32.777Z,993.38
2017-11-23T04:03:32.729Z,993.33
2017-11-23T04:04:32.818Z,993.31
2017-11-23T04:05:32.756Z,993.30
2017-11-23T04:06:32.734Z,993.29
2017-11-23T04:07:32.958Z,993.26
2017-11-23T04:08:32.771Z,993.19
2017-11-23T04:09:32.800Z,993.14
2017-11-23T04:10:32.712Z,993.09
2017-11-23T04:11:32.766Z,993.10
2017-11-23T04:12:32.823Z,993.08
2017-11-23T04:13:32.817Z,993.09
2017-11-23T04:14:32.697Z,993.06
2017-11-23T04:15:32.784Z,993.02
2017-11-23T04:16:32.824Z,993.02
2017-11-23T04:17:32.685Z,993.01
2017-11-23T04:18:32.736Z,993.03
2017-11-23T04:19:32.732Z,993.03
2017-11-23T04:20:32.688Z,993.07
2017-11-23T04:21:32.734Z,993.03
2017-11-23T04:22:32.734Z,992.94
2017-11-23T04:23:32.692Z,992.93
2017-11-23T04:24:32.738Z,992.96
2017-11-23T04:25:32.786Z,992.98
2017-11-23T04:26:32.790Z,992.98
2017-11-23T04:27:32.840Z,992.95
2017-11-23T04:28:32.846Z,992.99
2017-11-23T04:29:32.842Z,993.00
2017-11-23T04:30:32.773Z,993.04
2017-11-23T04:31:32.804Z,993.06
2017-11-23T04:32:32.773Z,993.04
2017-11-23T04:33:32.873Z,993.08
2017-11-23T04:34:32.780Z,993.04
2017-11-23T04:35:32.779Z,993.01
2017-11-23T04:36:32.780Z,993.00
2017-11-23T04:37:32.847Z,993.05
2017-11-23T04:38:32.802Z,992.96
2017-11-23T04:39:32.849Z,992.99
2017-11-23T04:40:32.794Z,992.97
2017-11-23T04:41:32.785Z,992.96
2017-11-23T04:42:32.865Z,992.92
2017-11-23T04:43:32.785Z,992.94
2017-11-23T04:44:32.851Z,992.91
2017-11-23T04:45:32.785Z,992.96
2017-11-23T04:46:32.853Z,992.93
2017-11-23T04:47:32.746Z,992.94
2017-11-23T04:48:32.778Z,992.94
2017-11-23T04:49:32.786Z,992.93
2017-11-23T04:50:32.779Z,992.94
2017-11-23T04:51:32.781Z,992.92
2017-11-23T04:52:32.813Z,992.91
2017-11-23T04:53:32.747Z,992.92
2017-11-23T04:54:32.712Z,992.91
2017-11-23T04:55:32.808Z,992.92
2017-11-23T04:56:32.840Z,992.86
2017-11-23T04:57:32.810Z,992.87
2017-11-23T04:58:32.721Z,992.87
2017-11-23T04:59:32.850Z,992.95
2017-11-23T05:00:32.861Z,992.91
2017-11-23T05:01:32.850Z,992.90
2017-11-23T05:02:32.859Z,992.90
2017-11-23T05:03:32.861Z,992.89
2017-11-23T05:04:32.832Z,992.92
2017-11-23T05:05:32.812Z,992.89
2017-11-23T05:06:32.858Z,992.91
2017-11-23T05:07:32.804Z,992.93
2017-11-23T05:08:32.769Z,992.92
2017-11-23T05:09:32.771Z,992.93
2017-11-23T05:10:32.859Z,992.91
2017-11-23T05:11:32.857Z,992.91
2017-11-23T05:12:32.769Z,992.86
2017-11-23T05:13:32.841Z,992.87
2017-11-23T05:14:32.815Z,992.83
2017-11-23T05:15:32.859Z,992.88
2017-11-23T05:16:32.860Z,992.84
2017-11-23T05:17:32.808Z,992.84
2017-11-23T05:18:32.758Z,992.80
2017-11-23T05:19:32.835Z,992.74
2017-11-23T05:20:32.853Z,992.68
2017-11-23T05:21:32.805Z,992.68
2017-11-23T05:22:32.761Z,992.71
2017-11-23T05:23:32.761Z,992.66
2017-11-23T05:24:32.802Z,992.65
2017-11-23T05:25:32.830Z,992.64
2017-11-23T05:26:32.748Z,992.52
2017-11-23T05:27:32.806Z,992.46
2017-11-23T05:28:32.877Z,992.46
2017-11-23T05:29:32.811Z,992.42
2017-11-23T05:30:32.881Z,992.43
2017-11-23T05:31:32.881Z,992.42
2017-11-23T05:32:32.813Z,992.42
2017-11-23T05:33:32.882Z,992.43
2017-11-23T05:34:32.817Z,992.48
2017-11-23T05:35:32.882Z,992.51
2017-11-23T05:36:32.886Z,992.59
2017-11-23T05:37:32.856Z,992.58
2017-11-23T05:38:32.883Z,992.59
2017-11-23T05:39:32.820Z,992.63
2017-11-23T05:40:32.886Z,992.63
2017-11-23T05:41:32.821Z,992.64
2017-11-23T05:42:32.890Z,992.60
2017-11-23T05:43:32.821Z,992.61
2017-11-23T05:44:32.892Z,992.63
2017-11-23T05:45:32.829Z,992.57
2017-11-23T05:46:32.898Z,992.55
2017-11-23T05:47:32.762Z,992.54
2017-11-23T05:48:32.870Z,992.54
2017-11-23T05:49:32.820Z,992.58
2017-11-23T05:50:32.869Z,992.56
2017-11-23T05:51:32.786Z,992.57
2017-11-23T05:52:32.818Z,992.53
2017-11-23T05:53:32.787Z,992.54
2017-11-23T05:54:32.845Z,992.48
2017-11-23T05:55:32.816Z,992.51
2017-11-23T05:56:32.850Z,992.47
2017-11-23T05:57:32.761Z,992.42
2017-11-23T05:58:32.846Z,992.40
2017-11-23T05:59:32.865Z,992.40
2017-11-23T06:00:32.797Z,992.40
2017-11-23T06:01:32.781Z,992.40
2017-11-23T06:02:32.805Z,992.34
2017-11-23T06:03:32.889Z,992.33
2017-11-23T06:04:32.884Z,992.36
2017-11-23T06:05:32.852Z,992.28
2017-11-23T06:06:32.805Z,992.26
2017-11-23T06:07:32.903Z,992.21
2017-11-23T06:08:32.839Z,992.22
2017-11-23T06:09:32.837Z,992.15
2017-11-23T06:10:32.903Z,992.13
2017-11-23T06:11:32.845Z,992.18
2017-11-23T06:12:32.943Z,992.23
2017-11-23T06:13:32.904Z,992.23
2017-11-23T06:14:32.832Z,992.29
2017-11-23T06:15:32.908Z,992.29
2017-11-23T06:16:32.841Z,992.28
2017-11-23T06:17:32.907Z,992.46
2017-11-23T06:18:32.839Z,992.58
2017-11-23T06:19:32.908Z,992.66
2017-11-23T06:20:32.845Z,992.69
2017-11-23T06:21:32.912Z,992.87
2017-11-23T06:22:32.846Z,992.90
2017-11-23T06:23:32.912Z,992.94
2017-11-23T06:24:32.854Z,992.95
2017-11-23T06:25:32.846Z,993.03
2017-11-23T06:26:32.848Z,993.13
2017-11-23T06:27:32.928Z,993.25
2017-11-23T06:28:32.802Z,993.14
2017-11-23T06:29:32.867Z,993.11
2017-11-23T06:30:32.863Z,992.92
2017-11-23T06:31:32.847Z,992.85
2017-11-23T06:32:32.902Z,992.89
2017-11-23T06:33:32.821Z,992.90
2017-11-23T06:34:32.818Z,992.88
2017-11-23T06:35:32.907Z,992.81
2017-11-23T06:36:32.908Z,992.79
2017-11-23T06:37:32.843Z,992.79
2017-11-23T06:38:32.908Z,992.77
2017-11-23T06:39:32.940Z,992.80
2017-11-23T06:40:32.886Z,992.86
2017-11-23T06:41:32.854Z,992.90
2017-11-23T06:42:32.808Z,992.83
2017-11-23T06:43:32.828Z,992.83
2017-11-23T06:44:32.877Z,992.77
2017-11-23T06:45:32.792Z,992.75
2017-11-23T06:46:32.862Z,992.78
2017-11-23T06:47:32.825Z,992.70
2017-11-23T06:48:32.829Z,992.74
2017-11-23T06:49:32.910Z,992.71
2017-11-23T06:50:32.866Z,992.77
2017-11-23T06:51:32.912Z,992.73
2017-11-23T06:52:32.813Z,992.69
2017-11-23T06:53:32.917Z,992.71
2017-11-23T06:54:32.920Z,992.66
2017-11-23T06:55:32.881Z,992.57
2017-11-23T06:56:32.812Z,992.53
2017-11-23T06:57:32.886Z,992.58
2017-11-23T06:58:32.913Z,992.61
2017-11-23T06:59:32.867Z,992.56
2017-11-23T07:00:32.845Z,992.49
2017-11-23T07:01:32.806Z,992.42
2017-11-23T07:02:32.827Z,992.43
2017-11-23T07:03:32.857Z,992.42
2017-11-23T07:04:32.867Z,992.54
2017-11-23T07:05:32.895Z,992.59
2017-11-23T07:06:32.865Z,992.77
2017-11-23T07:07:32.944Z,992.82
2017-11-23T07:08:32.899Z,992.84
2017-11-23T07:09:32.938Z,992.89
2017-11-23T07:10:32.875Z,992.82
2017-11-23T07:11:32.874Z,992.81
2017-11-23T07:12:32.946Z,992.79
2017-11-23T07:13:32.873Z,992.82
2017-11-23T07:14:32.941Z,992.91
2017-11-23T07:15:32.869Z,992.92
2017-11-23T07:16:32.872Z,992.92
2017-11-23T07:17:32.828Z,992.96
2017-11-23T07:18:32.811Z,992.98
2017-11-23T07:19:32.805Z,992.96
2017-11-23T07:20:32.854Z,992.92
2017-11-23T07:21:32.889Z,992.97
2017-11-23T07:22:32.871Z,993.02
2017-11-23T07:23:32.874Z,993.00
2017-11-23T07:24:32.905Z,993.12
2017-11-23T07:25:32.925Z,993.09
2017-11-23T07:26:32.830Z,993.11
2017-11-23T07:27:32.851Z,993.12
2017-11-23T07:28:32.933Z,993.13
2017-11-23T07:29:32.916Z,993.14
2017-11-23T07:30:32.851Z,993.12
2017-11-23T07:31:32.851Z,993.08
2017-11-23T07:32:32.952Z,993.13
2017-11-23T07:33:32.834Z,993.09
2017-11-23T07:34:32.901Z,993.16
2017-11-23T07:35:32.952Z,993.23
2017-11-23T07:36:32.908Z,993.21
2017-11-23T07:37:32.957Z,993.28
2017-11-23T07:38:32.887Z,993.27
2017-11-23T07:39:32.958Z,993.25
2017-11-23T07:40:32.885Z,993.21
2017-11-23T07:41:32.956Z,993.15
2017-11-23T07:42:32.890Z,993.08
2017-11-23T07:43:32.960Z,993.16
2017-11-23T07:44:32.889Z,993.15
2017-11-23T07:45:32.959Z,993.17
2017-11-23T07:46:32.889Z,993.09
2017-11-23T07:47:32.914Z,993.22
2017-11-23T07:48:32.958Z,993.28
2017-11-23T07:49:32.958Z,993.32
2017-11-23T07:50:32.865Z,993.30
2017-11-23T07:51:32.862Z,993.24
2017-11-23T07:52:32.864Z,993.24
2017-11-23T07:53:32.962Z,993.27
2017-11-23T07:54:32.909Z,993.18
2017-11-23T07:55:32.872Z,993.09
2017-11-23T07:56:32.933Z,993.14
2017-11-23T07:57:32.835Z,993.13
2017-11-23T07:58:32.943Z,993.18
2017-11-23T07:59:33.068Z,993.17
2017-11-23T08:00:32.859Z,993.16
2017-11-23T08:01:32.865Z,993.10
2017-11-23T08:02:32.897Z,993.05
2017-11-23T08:03:32.931Z,993.01
2017-11-23T08:04:32.933Z,992.96
2017-11-23T08:05:32.821Z,992.97
2017-11-23T08:06:32.876Z,993.06
2017-11-23T08:07:32.976Z,993.04
2017-11-23T08:08:32.903Z,993.06
2017-11-23T08:09:32.976Z,993.09
2017-11-23T08:10:32.907Z,993.06
2017-11-23T08:11:32.978Z,993.01
2017-11-23T08:12:32.902Z,992.99
2017-11-23T08:13:32.977Z,992.86
2017-11-23T08:14:32.912Z,993.00
2017-11-23T08:15:32.978Z,993.03
2017-11-23T08:16:32.903Z,992.97
2017-11-23T08:17:32.977Z,993.09
2017-11-23T08:18:32.912Z,993.13
2017-11-23T08:19:32.980Z,993.11
2017-11-23T08:20:32.910Z,993.20
2017-11-23T08:21:32.982Z,993.27
2017-11-23T08:22:32.917Z,993.27
2017-11-23T08:23:32.980Z,993.28
2017-11-23T08:24:32.920Z,993.44
2017-11-23T08:25:32.985Z,993.41
2017-11-23T08:26:32.919Z,993.35
2017-11-23T08:27:32.860Z,993.29
2017-11-23T08:28:32.948Z,993.39
2017-11-23T08:29:32.977Z,993.40
2017-11-23T08:30:32.885Z,993.45
2017-11-23T08:31:32.982Z,993.39
2017-11-23T08:32:32.898Z,993.34
2017-11-23T08:33:32.952Z,993.33
2017-11-23T08:34:32.971Z,993.36
2017-11-23T08:35:32.953Z,993.38
2017-11-23T08:36:32.871Z,993.30
2017-11-23T08:37:32.924Z,993.35
2017-11-23T08:38:32.994Z,993.45
2017-11-23T08:39:32.927Z,993.49
2017-11-23T08:40:32.931Z,993.41
2017-11-23T08:41:32.994Z,993.47
2017-11-23T08:42:32.925Z,993.47
2017-11-23T08:43:32.994Z,993.38
2017-11-23T08:44:32.933Z,993.35
2017-11-23T08:45:33.026Z,993.46
2017-11-23T08:46:32.926Z,993.60
2017-11-23T08:47:32.876Z,993.72
2017-11-23T08:48:32.947Z,993.71
2017-11-23T08:49:32.975Z,993.62
2017-11-23T08:50:32.882Z,993.61
2017-11-23T08:51:32.951Z,993.48
2017-11-23T08:52:32.948Z,993.40
2017-11-23T08:53:32.964Z,993.38
2017-11-23T08:54:32.967Z,993.35
2017-11-23T08:55:32.963Z,993.43
2017-11-23T08:56:32.860Z,993.42
2017-11-23T08:57:32.967Z,993.33
2017-11-23T08:58:32.954Z,993.31
2017-11-23T08:59:32.908Z,993.38
2017-11-23T09:00:32.884Z,993.35
2017-11-23T09:01:32.992Z,993.27
2017-11-23T09:02:32.995Z,993.35
2017-11-23T09:03:32.915Z,993.34
2017-11-23T09:04:33.023Z,993.34
2017-11-23T09:05:32.920Z,993.29
2017-11-23T09:06:32.938Z,993.26
2017-11-23T09:07:32.930Z,993.32
2017-11-23T09:08:33.010Z,993.22
2017-11-23T09:09:32.934Z,993.26
2017-11-23T09:10:32.932Z,993.25
2017-11-23T09:11:33.012Z,993.27
2017-11-23T09:12:32.940Z,993.27
2017-11-23T09:13:32.922Z,993.37
2017-11-23T09:14:32.962Z,993.28
2017-11-23T09:15:32.960Z,993.33
2017-11-23T09:16:32.916Z,993.27
2017-11-23T09:17:32.950Z,993.32
2017-11-23T09:18:33.019Z,993.32
2017-11-23T09:19:32.952Z,993.26
2017-11-23T09:20:33.017Z,993.38
2017-11-23T09:21:32.951Z,993.37
2017-11-23T09:22:32.949Z,993.27
2017-11-23T09:23:33.019Z,993.31
2017-11-23T09:24:32.944Z,993.44
2017-11-23T09:25:33.023Z,993.42
2017-11-23T09:26:32.949Z,993.41
2017-11-23T09:27:32.926Z,993.37
2017-11-23T09:28:32.998Z,993.33
2017-11-23T09:29:32.963Z,993.33
2017-11-23T09:30:32.978Z,993.43
2017-11-23T09:31:32.914Z,993.46
2017-11-23T09:32:32.881Z,993.41
2017-11-23T09:33:32.893Z,993.41
2017-11-23T09:34:32.980Z,993.47
2017-11-23T09:35:32.881Z,993.37
2017-11-23T09:36:32.989Z,993.46
2017-11-23T09:37:33.033Z,993.37
2017-11-23T09:38:33.028Z,993.25
2017-11-23T09:39:32.959Z,993.27
2017-11-23T09:40:33.029Z,993.33
2017-11-23T09:41:33.034Z,993.31
2017-11-23T09:42:32.961Z,993.21
2017-11-23T09:43:33.033Z,993.24
2017-11-23T09:44:32.959Z,993.37
2017-11-23T09:45:33.034Z,993.31
2017-11-23T09:46:32.962Z,993.36
2017-11-23T09:47:32.976Z,993.31
2017-11-23T09:48:32.978Z,993.21
2017-11-23T09:49:33.021Z,993.24
2017-11-23T09:50:33.000Z,993.37
2017-11-23T09:51:32.939Z,993.33
2017-11-23T09:52:32.945Z,993.30
2017-11-23T09:53:32.981Z,993.23
2017-11-23T09:54:32.986Z,993.27
2017-11-23T09:55:32.949Z,993.17
2017-11-23T09:56:32.945Z,993.12
2017-11-23T09:57:32.970Z,993.08
2017-11-23T09:58:33.041Z,993.15
2017-11-23T09:59:32.972Z,993.08
2017-11-23T10:00:32.973Z,993.06
2017-11-23T10:01:33.045Z,992.90
2017-11-23T10:02:32.971Z,993.00
2017-11-23T10:03:33.056Z,993.03
2017-11-23T10:04:32.973Z,992.93
2017-11-23T10:05:33.044Z,992.90
2017-11-23T10:06:32.973Z,992.97
2017-11-23T10:07:32.908Z,992.97
2017-11-23T10:08:33.049Z,992.81
2017-11-23T10:09:33.016Z,992.92
2017-11-23T10:10:32.933Z,992.74
2017-11-23T10:11:32.994Z,992.88
2017-11-23T10:12:33.028Z,992.93
2017-11-23T10:13:32.932Z,992.88
2017-11-23T10:14:33.000Z,992.79
2017-11-23T10:15:32.972Z,992.85
2017-11-23T10:16:33.021Z,992.82
2017-11-23T10:17:33.011Z,992.79
2017-11-23T10:18:33.052Z,992.86
2017-11-23T10:19:32.976Z,992.87
2017-11-23T10:20:33.051Z,992.91
2017-11-23T10:21:32.927Z,993.04
2017-11-23T10:22:33.110Z,992.96
2017-11-23T10:23:33.023Z,992.89
2017-11-23T10:24:32.932Z,992.93
2017-11-23T10:25:33.007Z,993.04
2017-11-23T10:26:32.937Z,992.95
2017-11-23T10:27:32.955Z,992.87
2017-11-23T10:28:32.972Z,992.99
2017-11-23T10:29:33.043Z,992.96
2017-11-23T10:30:32.942Z,992.96
2017-11-23T10:31:33.044Z,992.97
2017-11-23T10:32:33.059Z,993.03
2017-11-23T10:33:32.967Z,992.92
2017-11-23T10:34:33.027Z,992.88
2017-11-23T10:35:33.027Z,992.80
2017-11-23T10:36:33.024Z,992.79
2017-11-23T10:37:33.062Z,992.85
2017-11-23T10:38:33.011Z,992.85
2017-11-23T10:39:32.949Z,992.79
2017-11-23T10:40:33.054Z,992.76
2017-11-23T10:41:33.064Z,992.80
2017-11-23T10:42:33.034Z,992.87
2017-11-23T10:43:33.062Z,992.77
2017-11-23T10:44:32.977Z,992.79
2017-11-23T10:45:33.062Z,992.90
2017-11-23T10:46:33.066Z,992.84
2017-11-23T10:47:33.004Z,992.84
2017-11-23T10:48:33.007Z,992.75
2017-11-23T10:49:32.973Z,992.74
2017-11-23T10:50:33.033Z,992.75
2017-11-23T10:51:32.985Z,992.76
2017-11-23T10:52:33.009Z,992.75
2017-11-23T10:53:33.054Z,992.70
2017-11-23T10:54:33.057Z,992.62
2017-11-23T10:55:32.978Z,992.74
2017-11-23T10:56:32.982Z,992.66
2017-11-23T10:57:32.963Z,992.64
2017-11-23T10:58:33.000Z,992.64
2017-11-23T10:59:33.008Z,992.69
2017-11-23T11:00:33.079Z,992.62
2017-11-23T11:01:33.003Z,992.66
2017-11-23T11:02:33.078Z,992.74
2017-11-23T11:03:33.057Z,992.81
2017-11-23T11:04:33.098Z,992.76
2017-11-23T11:05:33.014Z,992.77
2017-11-23T11:06:33.078Z,992.88
2017-11-23T11:07:33.013Z,992.82
2017-11-23T11:08:33.047Z,992.67
2017-11-23T11:09:32.963Z,992.77
2017-11-23T11:10:33.076Z,992.78
2017-11-23T11:11:32.993Z,992.78
2017-11-23T11:12:33.028Z,992.81
2017-11-23T11:13:32.991Z,992.67
2017-11-23T11:14:33.024Z,992.79
2017-11-23T11:15:33.091Z,992.74
2017-11-23T11:16:33.031Z,992.75
2017-11-23T11:17:33.084Z,992.78
2017-11-23T11:18:33.026Z,992.80
2017-11-23T11:19:32.955Z,992.77
2017-11-23T11:20:32.991Z,992.81
2017-11-23T11:21:32.973Z,992.87
2017-11-23T11:22:33.017Z,992.95
2017-11-23T11:23:32.944Z,992.91
2017-11-23T11:24:33.071Z,992.93
2017-11-23T11:25:32.964Z,993.12
2017-11-23T11:26:33.042Z,992.93
2017-11-23T11:27:32.945Z,993.00
2017-11-23T11:28:32.982Z,992.87
2017-11-23T11:29:33.054Z,992.96
2017-11-23T11:30:32.963Z,992.98
2017-11-23T11:31:33.055Z,992.88
2017-11-23T11:32:32.981Z,992.98
2017-11-23T11:33:32.984Z,992.93
2017-11-23T11:34:32.986Z,993.00
2017-11-23T11:35:33.004Z,992.79
2017-11-23T11:36:33.055Z,992.88
2017-11-23T11:37:33.027Z,992.89
2017-11-23T11:38:33.105Z,993.15
2017-11-23T11:39:33.033Z,993.08
2017-11-23T11:40:32.986Z,993.00
2017-11-23T11:41:33.034Z,992.99
2017-11-23T11:42:33.124Z,993.02
2017-11-23T11:43:33.034Z,992.90
2017-11-23T11:44:33.109Z,992.96
2017-11-23T11:45:33.034Z,992.95
2017-11-23T11:46:33.103Z,992.90
2017-11-23T11:47:33.039Z,992.97
2017-11-23T11:48:33.105Z,993.01
2017-11-23T11:49:33.035Z,993.05
2017-11-23T11:50:33.105Z,993.08
2017-11-23T11:51:33.058Z,992.99
2017-11-23T11:52:33.111Z,993.02
2017-11-23T11:53:33.038Z,992.99
2017-11-23T11:54:33.110Z,992.99
2017-11-23T11:55:33.038Z,992.97
2017-11-23T11:56:33.111Z,993.04
2017-11-23T11:57:33.042Z,993.03
2017-11-23T11:58:33.112Z,993.04
2017-11-23T11:59:33.113Z,992.92
2017-11-23T12:00:33.045Z,992.99
2017-11-23T12:01:33.112Z,992.99
2017-11-23T12:02:33.044Z,993.05
2017-11-23T12:03:33.114Z,993.10
2017-11-23T12:04:33.042Z,993.00
2017-11-23T12:05:33.115Z,993.02
2017-11-23T12:06:33.043Z,992.98
2017-11-23T12:08:33.118Z,993.02
2017-11-23T12:09:33.074Z,992.93
2017-11-23T12:10:33.121Z,992.92
2017-11-23T12:11:33.052Z,992.93
2017-11-23T12:12:33.121Z,992.95
2017-11-23T12:13:33.052Z,993.04
2017-11-23T12:14:33.124Z,992.91
2017-11-23T12:15:33.055Z,992.97
2017-11-23T12:16:33.123Z,992.98
2017-11-23T12:17:33.054Z,992.98
2017-11-23T12:18:33.051Z,993.04
2017-11-23T12:19:32.990Z,992.96
2017-11-23T12:20:33.008Z,993.13
2017-11-23T12:21:32.985Z,993.11
2017-11-23T12:22:33.052Z,993.17
2017-11-23T12:23:32.979Z,993.16
2017-11-23T12:24:32.986Z,993.25
2017-11-23T12:25:32.983Z,993.34
2017-11-23T12:26:33.086Z,993.33
2017-11-23T12:27:33.090Z,993.34
2017-11-23T12:28:33.071Z,993.41
2017-11-23T12:29:33.070Z,993.25